Time;durP1;ratioP1;P1;durP2;ratioP2;P2;SDS_P1;SDS_P2;PMS_P1;PMS_P2;Temp;Humidity;BMP_temperature;BMP_pressure;BME280_temperature;BME280_humidity;BME280_pressure;Samples;Min_cycle;Max_cycle;Signal;HPM_P1;HPM_P2
2021/09/17 00:00:28;;;;;;;26.63;19.70;;;15.90;99.90;;;;;;5052778;28;20037;-60
2021/09/17 00:02:54;;;;;;;30.13;20.45;;;15.90;99.90;;;;;;5053328;28;20124;-59
2021/09/17 00:05:20;;;;;;;28.10;19.83;;;15.90;99.90;;;;;;5043106;28;20618;-61
2021/09/17 00:07:45;;;;;;;29.45;21.08;;;15.80;99.90;;;;;;5048393;28;20437;-62
2021/09/17 00:10:12;;;;;;;34.60;20.95;;;15.80;99.90;;;;;;5052382;28;20493;-60
2021/09/17 00:12:38;;;;;;;27.15;19.17;;;15.80;99.90;;;;;;5052939;28;20041;-58
2021/09/17 00:15:05;;;;;;;26.20;19.15;;;15.70;99.90;;;;;;5052296;28;20037;-60
2021/09/17 00:17:31;;;;;;;31.98;21.73;;;15.70;99.90;;;;;;5052589;28;20029;-61
2021/09/17 00:19:56;;;;;;;29.65;20.45;;;15.80;99.90;;;;;;5048690;28;20494;-60
2021/09/17 00:22:22;;;;;;;26.92;19.27;;;15.70;99.90;;;;;;5042393;28;20473;-58
2021/09/17 00:24:48;;;;;;;25.25;17.63;;;15.60;99.90;;;;;;5052478;28;20501;-59
2021/09/17 00:27:13;;;;;;;25.45;18.05;;;15.60;99.90;;;;;;5048376;28;20024;-59
2021/09/17 00:29:39;;;;;;;27.92;19.45;;;15.50;99.90;;;;;;5042362;28;20553;-57
2021/09/17 00:32:05;;;;;;;28.85;19.60;;;15.40;99.90;;;;;;5047882;28;20104;-58
2021/09/17 00:34:31;;;;;;;26.23;18.85;;;15.40;99.90;;;;;;5032596;28;20076;-60
2021/09/17 00:36:57;;;;;;;26.95;19.08;;;15.40;99.90;;;;;;5031862;28;20033;-60
2021/09/17 00:39:22;;;;;;;24.35;18.98;;;15.30;99.90;;;;;;5032775;28;20104;-59
2021/09/17 00:41:48;;;;;;;26.42;18.77;;;15.20;99.90;;;;;;5031530;28;20037;-60
2021/09/17 00:44:25;;;;;;;27.45;19.67;;;15.20;99.90;;;;;;5032470;28;20038;-61
2021/09/17 00:46:52;;;;;;;26.85;19.88;;;15.10;99.90;;;;;;5031376;28;20434;-61
2021/09/17 00:49:19;;;;;;;30.00;20.55;;;15.10;99.90;;;;;;5031269;28;20034;-60
2021/09/17 00:51:46;;;;;;;26.83;20.50;;;15.10;99.90;;;;;;5031921;28;20053;-58
2021/09/17 00:54:12;;;;;;;27.92;21.02;;;15.10;99.90;;;;;;5032416;28;20087;-60
2021/09/17 00:56:38;;;;;;;27.35;20.38;;;15.10;99.90;;;;;;5030642;28;20040;-59
2021/09/17 00:59:04;;;;;;;30.17;22.25;;;15.20;99.90;;;;;;5032352;28;20383;-60
2021/09/17 01:01:30;;;;;;;27.25;20.92;;;15.20;99.90;;;;;;5031473;28;20030;-59
2021/09/17 01:03:55;;;;;;;27.88;20.55;;;15.10;99.90;;;;;;5032095;28;20091;-59
2021/09/17 01:06:21;;;;;;;25.60;19.88;;;15.00;99.90;;;;;;5031725;28;20063;-60
2021/09/17 01:08:47;;;;;;;27.15;21.00;;;14.90;99.90;;;;;;5031903;28;20037;-59
2021/09/17 01:11:32;;;;;;;29.05;22.00;;;14.90;99.90;;;;;;5031279;28;20037;-59
2021/09/17 01:14:00;;;;;;;26.45;19.88;;;14.90;99.90;;;;;;5031149;28;20033;-60
2021/09/17 01:16:26;;;;;;;28.33;20.17;;;14.80;99.90;;;;;;5031168;28;20034;-58
2021/09/17 01:18:53;;;;;;;31.25;20.15;;;14.80;99.90;;;;;;5031985;28;20108;-60
2021/09/17 01:21:22;;;;;;;28.85;20.60;;;14.80;99.90;;;;;;5031133;28;20086;-60
2021/09/17 01:23:48;;;;;;;27.08;19.88;;;14.70;99.90;;;;;;5032029;28;20483;-59
2021/09/17 01:26:14;;;;;;;31.77;20.83;;;14.70;99.90;;;;;;5031137;28;20025;-59
2021/09/17 01:28:40;;;;;;;28.65;20.25;;;14.70;99.90;;;;;;5047133;28;20033;-61
2021/09/17 01:31:07;;;;;;;25.67;19.95;;;14.60;99.90;;;;;;5050844;28;20100;-61
2021/09/17 01:33:33;;;;;;;27.67;19.45;;;14.60;99.90;;;;;;5051641;28;20043;-59
2021/09/17 01:36:03;;;;;;;27.08;19.60;;;14.50;99.90;;;;;;5050422;28;20033;-60
2021/09/17 01:38:30;;;;;;;26.38;19.90;;;14.50;99.90;;;;;;5051613;28;20092;-59
2021/09/17 01:40:57;;;;;;;31.73;20.50;;;14.50;99.90;;;;;;5049137;28;20079;-60
2021/09/17 01:43:23;;;;;;;26.35;20.10;;;14.50;99.90;;;;;;5044892;28;20542;-58
2021/09/17 01:45:49;;;;;;;27.70;20.33;;;14.50;99.90;;;;;;5047401;28;20398;-61
2021/09/17 01:48:15;;;;;;;25.55;19.35;;;14.50;99.90;;;;;;5051363;28;20021;-60
2021/09/17 01:50:41;;;;;;;28.40;20.67;;;14.40;99.90;;;;;;5050594;28;20033;-59
2021/09/17 01:53:07;;;;;;;26.98;20.10;;;14.40;99.90;;;;;;5044837;28;20052;-59
2021/09/17 01:55:33;;;;;;;27.75;21.27;;;14.40;99.90;;;;;;5043433;28;20048;-60
2021/09/17 01:57:59;;;;;;;30.33;20.42;;;14.40;99.90;;;;;;5036932;28;20475;-59
2021/09/17 02:00:24;;;;;;;27.85;20.55;;;14.40;99.90;;;;;;5040620;28;20179;-58
2021/09/17 02:02:50;;;;;;;31.90;22.10;;;14.40;99.90;;;;;;5046970;28;20758;-58
2021/09/17 02:05:17;;;;;;;29.30;21.67;;;14.30;99.90;;;;;;5051039;28;20148;-59
2021/09/17 02:07:43;;;;;;;32.85;23.17;;;14.30;99.90;;;;;;5050334;28;20460;-59
2021/09/17 02:10:10;;;;;;;31.25;22.65;;;14.30;99.90;;;;;;5051071;28;20029;-58
2021/09/17 02:12:36;;;;;;;32.65;23.42;;;14.30;99.90;;;;;;5050424;28;20033;-60
2021/09/17 02:15:07;;;;;;;34.50;23.67;;;14.30;99.90;;;;;;5050906;28;20033;-59
2021/09/17 02:17:33;;;;;;;31.60;22.83;;;14.30;99.90;;;;;;5050262;28;20029;-58
2021/09/17 02:19:58;;;;;;;37.45;24.77;;;14.30;99.90;;;;;;5050877;28;20429;-57
2021/09/17 02:22:25;;;;;;;43.15;25.48;;;14.30;99.90;;;;;;5050132;28;20411;-58
2021/09/17 02:24:51;;;;;;;38.55;24.70;;;14.30;99.90;;;;;;5050608;28;20088;-60
2021/09/17 02:27:16;;;;;;;34.97;24.77;;;14.40;99.90;;;;;;5049940;28;20037;-60
2021/09/17 02:29:42;;;;;;;36.90;25.70;;;14.40;99.90;;;;;;5050846;28;20057;-59
2021/09/17 02:32:09;;;;;;;34.47;25.30;;;14.50;99.90;;;;;;5049866;28;20025;-59
2021/09/17 02:34:35;;;;;;;34.08;24.92;;;14.60;99.90;;;;;;5050589;28;20033;-60
2021/09/17 02:37:01;;;;;;;33.60;23.63;;;14.70;99.90;;;;;;5035853;28;20034;-59
2021/09/17 02:39:27;;;;;;;34.97;24.30;;;14.80;99.90;;;;;;5050854;28;20079;-62
2021/09/17 02:41:52;;;;;;;34.15;23.38;;;14.80;99.90;;;;;;5050256;28;20533;-59
2021/09/17 02:44:18;;;;;;;32.83;23.75;;;14.90;99.90;;;;;;5040802;28;20025;-60
2021/09/17 02:46:44;;;;;;;39.17;24.25;;;14.80;99.90;;;;;;5039866;28;20502;-60
2021/09/17 02:49:10;;;;;;;41.05;23.75;;;14.90;99.90;;;;;;5032780;28;20383;-60
2021/09/17 02:51:35;;;;;;;34.28;23.33;;;14.90;99.90;;;;;;5042152;28;20036;-61
2021/09/17 02:54:01;;;;;;;32.10;22.50;;;15.00;99.90;;;;;;5044761;28;20026;-60
2021/09/17 02:56:27;;;;;;;32.65;22.77;;;15.10;99.90;;;;;;5050121;28;20059;-59
2021/09/17 02:58:53;;;;;;;34.92;24.23;;;15.10;99.90;;;;;;5049178;28;20061;-59
2021/09/17 03:01:18;;;;;;;32.33;22.88;;;15.10;99.90;;;;;;5049849;28;20029;-59
2021/09/17 03:03:44;;;;;;;31.38;23.00;;;15.20;99.90;;;;;;5050336;28;20033;-58
2021/09/17 03:06:09;;;;;;;43.10;23.92;;;15.10;99.90;;;;;;5049530;28;20033;-58
2021/09/17 03:08:35;;;;;;;37.58;23.92;;;15.10;99.90;;;;;;5065868;28;20056;-60
2021/09/17 03:11:01;;;;;;;36.03;23.52;;;15.10;99.90;;;;;;5049782;28;20032;-58
2021/09/17 03:13:28;;;;;;;34.70;23.23;;;15.10;99.90;;;;;;5036331;28;20033;-61
2021/09/17 03:15:54;;;;;;;35.05;22.58;;;15.10;99.90;;;;;;5038333;28;20025;-60
2021/09/17 03:18:20;;;;;;;36.65;23.00;;;15.00;99.90;;;;;;5044128;28;20108;-61
2021/09/17 03:20:48;;;;;;;32.90;22.20;;;14.90;99.90;;;;;;5042986;28;20033;-61
2021/09/17 03:23:14;;;;;;;36.40;22.05;;;14.90;99.90;;;;;;5050010;28;20116;-59
2021/09/17 03:25:40;;;;;;;37.47;21.73;;;14.90;99.90;;;;;;5037686;28;20124;-60
2021/09/17 03:28:06;;;;;;;31.95;21.38;;;14.90;99.90;;;;;;5050584;28;20491;-59
2021/09/17 03:30:32;;;;;;;37.95;21.35;;;14.90;99.90;;;;;;5052528;28;20504;-60
2021/09/17 03:32:57;;;;;;;29.35;20.52;;;15.00;99.90;;;;;;5053056;28;20052;-59
2021/09/17 03:35:23;;;;;;;31.92;21.55;;;15.00;99.90;;;;;;5053979;28;20072;-58
2021/09/17 03:37:49;;;;;;;31.65;20.90;;;15.00;99.90;;;;;;5052140;28;20029;-60
2021/09/17 03:40:15;;;;;;;36.95;21.52;;;15.00;99.90;;;;;;5053537;28;20491;-59
2021/09/17 03:42:41;;;;;;;35.10;21.17;;;15.00;99.90;;;;;;5052169;28;20086;-60
2021/09/17 03:45:07;;;;;;;30.55;20.85;;;14.90;99.90;;;;;;5053248;28;20077;-59
2021/09/17 03:47:33;;;;;;;27.88;19.13;;;14.90;99.90;;;;;;5052858;28;20108;-60
2021/09/17 03:49:59;;;;;;;30.60;20.58;;;14.90;99.90;;;;;;5053770;28;20498;-60
2021/09/17 03:52:24;;;;;;;30.98;21.17;;;14.80;99.90;;;;;;5052848;28;20422;-61
2021/09/17 03:54:50;;;;;;;30.92;19.73;;;14.80;99.90;;;;;;5051580;28;20045;-59
2021/09/17 03:57:16;;;;;;;31.23;19.88;;;14.80;99.90;;;;;;5039187;28;20036;-58
2021/09/17 03:59:42;;;;;;;27.60;19.80;;;14.80;99.90;;;;;;5053283;28;20064;-61
2021/09/17 04:02:07;;;;;;;28.48;20.42;;;14.70;99.90;;;;;;5038598;28;20516;-59
2021/09/17 04:04:33;;;;;;;29.35;20.52;;;14.70;99.90;;;;;;5041967;28;20079;-59
2021/09/17 04:06:59;;;;;;;34.05;19.95;;;14.80;99.90;;;;;;5049607;28;20021;-61
2021/09/17 04:09:25;;;;;;;27.10;18.80;;;14.80;99.90;;;;;;5051979;28;20037;-60
2021/09/17 04:11:51;;;;;;;28.83;19.88;;;14.80;99.90;;;;;;5052492;28;20427;-60
2021/09/17 04:14:16;;;;;;;29.38;19.38;;;14.80;99.90;;;;;;5052671;28;20033;-59
2021/09/17 04:16:42;;;;;;;29.25;19.67;;;14.70;99.90;;;;;;5052529;28;20039;-60
2021/09/17 04:19:08;;;;;;;31.98;19.25;;;14.80;99.90;;;;;;5052599;28;20024;-60
2021/09/17 04:21:34;;;;;;;26.60;18.17;;;14.80;99.90;;;;;;5052225;28;20463;-60
2021/09/17 04:23:59;;;;;;;29.90;18.88;;;14.70;99.90;;;;;;5052547;28;20250;-59
2021/09/17 04:26:25;;;;;;;31.58;18.00;;;14.70;99.90;;;;;;5053229;28;20419;-62
2021/09/17 04:28:51;;;;;;;27.20;17.85;;;14.70;99.90;;;;;;5051820;28;20155;-61
2021/09/17 04:31:18;;;;;;;24.65;17.98;;;14.80;99.90;;;;;;5051813;28;20151;-59
2021/09/17 04:33:43;;;;;;;24.58;18.45;;;14.70;99.90;;;;;;5050938;28;20452;-59
2021/09/17 04:36:09;;;;;;;25.98;18.73;;;14.70;99.90;;;;;;5052526;28;20092;-60
2021/09/17 04:38:35;;;;;;;26.70;18.98;;;14.60;99.90;;;;;;5051831;28;20037;-59
2021/09/17 04:41:00;;;;;;;31.13;19.85;;;14.60;99.90;;;;;;5052719;28;20108;-59
2021/09/17 04:43:27;;;;;;;25.70;17.83;;;14.60;99.90;;;;;;5044858;28;20032;-59
2021/09/17 04:45:53;;;;;;;32.10;18.92;;;14.60;99.90;;;;;;5045467;28;20377;-61
2021/09/17 04:48:22;;;;;;;27.00;18.75;;;14.60;99.90;;;;;;5051837;28;20490;-60
2021/09/17 04:50:47;;;;;;;26.02;18.10;;;14.60;99.90;;;;;;5052535;28;20027;-61
2021/09/17 04:53:13;;;;;;;25.15;17.95;;;14.70;99.90;;;;;;5037207;28;20103;-58
2021/09/17 04:55:39;;;;;;;26.10;18.17;;;14.60;99.90;;;;;;5052365;28;20044;-59
2021/09/17 04:58:08;;;;;;;26.63;18.25;;;14.60;99.90;;;;;;5048466;28;20537;-59
2021/09/17 05:00:35;;;;;;;28.27;18.48;;;14.60;99.90;;;;;;5031452;28;20030;-59
2021/09/17 05:03:01;;;;;;;27.15;18.15;;;14.60;99.90;;;;;;5036867;28;20550;-59
2021/09/17 05:05:27;;;;;;;28.90;19.10;;;14.60;99.90;;;;;;5052145;28;20060;-59
2021/09/17 05:07:53;;;;;;;25.85;18.27;;;14.60;99.90;;;;;;5043542;28;20388;-60
2021/09/17 05:10:19;;;;;;;29.00;18.73;;;14.60;99.90;;;;;;5050833;28;20025;-58
2021/09/17 05:12:45;;;;;;;24.13;17.17;;;14.60;99.90;;;;;;5051224;28;20022;-59
2021/09/17 05:15:11;;;;;;;26.85;17.38;;;14.50;99.90;;;;;;5051668;28;20052;-59
2021/09/17 05:17:37;;;;;;;25.95;17.73;;;14.50;99.90;;;;;;5051110;28;20064;-59
2021/09/17 05:20:03;;;;;;;23.20;17.05;;;14.40;99.90;;;;;;5037689;28;20029;-59
2021/09/17 05:22:29;;;;;;;22.77;16.63;;;14.50;99.90;;;;;;5051058;28;20070;-59
2021/09/17 05:24:55;;;;;;;24.30;17.60;;;14.40;99.90;;;;;;5067000;28;20391;-59
2021/09/17 05:27:21;;;;;;;27.25;18.17;;;14.40;99.90;;;;;;5051079;28;20021;-59
2021/09/17 05:29:47;;;;;;;25.58;17.30;;;14.40;99.90;;;;;;5039527;28;20041;-59
2021/09/17 05:32:13;;;;;;;27.48;17.77;;;14.40;99.90;;;;;;5048722;28;20043;-60
2021/09/17 05:34:38;;;;;;;27.23;17.98;;;14.40;99.90;;;;;;5051459;28;20035;-60
2021/09/17 05:37:05;;;;;;;27.40;18.50;;;14.40;99.90;;;;;;5051074;28;20029;-60
2021/09/17 05:39:31;;;;;;;26.98;17.67;;;14.40;99.90;;;;;;5050739;28;20039;-63
2021/09/17 05:41:57;;;;;;;26.23;18.17;;;14.40;99.90;;;;;;5051199;28;20044;-61
2021/09/17 05:44:22;;;;;;;26.30;18.13;;;14.50;99.90;;;;;;5050522;28;20028;-60
2021/09/17 05:46:48;;;;;;;25.60;17.45;;;14.50;99.90;;;;;;5051496;28;20380;-58
2021/09/17 05:49:14;;;;;;;29.00;17.58;;;14.40;99.90;;;;;;5050471;28;20079;-60
2021/09/17 05:51:39;;;;;;;28.92;18.20;;;14.60;99.90;;;;;;5051230;28;20029;-58
2021/09/17 05:54:05;;;;;;;31.65;18.98;;;14.60;99.90;;;;;;5050462;28;20037;-60
2021/09/17 05:56:31;;;;;;;31.17;18.65;;;14.60;99.90;;;;;;5050873;28;20203;-59
2021/09/17 05:58:57;;;;;;;32.08;19.08;;;14.50;99.90;;;;;;5050668;28;20128;-59
2021/09/17 06:01:23;;;;;;;26.77;18.15;;;14.50;99.90;;;;;;5051161;28;20044;-58
2021/09/17 06:03:48;;;;;;;31.17;19.02;;;14.50;99.90;;;;;;5050366;28;20476;-60
2021/09/17 06:06:17;;;;;;;30.60;18.42;;;14.50;99.90;;;;;;5051161;28;20086;-61
2021/09/17 06:08:42;;;;;;;39.17;17.65;;;14.60;99.90;;;;;;5044103;28;20488;-61
2021/09/17 06:11:08;;;;;;;26.25;17.38;;;14.60;99.90;;;;;;5043548;28;20027;-60
2021/09/17 06:13:34;;;;;;;24.67;16.58;;;14.60;99.90;;;;;;5049767;28;20104;-60
2021/09/17 06:15:59;;;;;;;28.60;17.00;;;14.60;99.90;;;;;;5041160;28;20044;-59
2021/09/17 06:18:25;;;;;;;25.02;16.35;;;14.70;99.90;;;;;;5044196;28;20039;-58
2021/09/17 06:20:51;;;;;;;29.95;16.98;;;14.60;99.90;;;;;;5039065;28;20381;-58
2021/09/17 06:23:16;;;;;;;30.25;16.08;;;14.60;99.90;;;;;;5049892;28;20037;-60
2021/09/17 06:25:42;;;;;;;25.05;17.10;;;14.60;99.90;;;;;;5051047;28;20082;-60
2021/09/17 06:28:09;;;;;;;25.95;16.23;;;14.50;99.90;;;;;;5050163;28;20028;-60
2021/09/17 06:30:34;;;;;;;27.98;17.75;;;14.60;99.90;;;;;;5036454;28;20131;-61
2021/09/17 06:33:00;;;;;;;32.78;17.10;;;14.70;99.90;;;;;;5049784;28;20542;-59
2021/09/17 06:35:26;;;;;;;28.73;16.73;;;14.70;99.90;;;;;;5050699;28;20040;-62
2021/09/17 06:37:53;;;;;;;23.48;15.85;;;14.80;99.90;;;;;;5049883;28;20033;-61
2021/09/17 06:40:22;;;;;;;24.70;15.88;;;14.70;99.90;;;;;;5050929;28;20375;-60
2021/09/17 06:42:48;;;;;;;26.95;17.02;;;14.70;99.90;;;;;;5049972;28;20029;-61
2021/09/17 06:45:14;;;;;;;24.55;15.52;;;14.80;99.90;;;;;;5050363;28;20032;-60
2021/09/17 06:47:47;;;;;;;25.40;16.13;;;14.80;99.90;;;;;;5065334;28;20630;-62
2021/09/17 06:50:15;;;;;;;29.15;16.95;;;14.80;99.90;;;;;;5050245;28;20043;-59
2021/09/17 06:52:47;;;;;;;25.85;15.27;;;14.80;99.90;;;;;;5050213;28;20048;-60
2021/09/17 06:55:15;;;;;;;24.08;15.30;;;14.80;99.90;;;;;;5051519;28;20486;-60
2021/09/17 06:57:45;;;;;;;22.80;14.30;;;14.80;99.90;;;;;;5053968;28;20033;-60
2021/09/17 07:00:11;;;;;;;24.63;14.90;;;14.80;99.90;;;;;;5054070;28;20033;-60
2021/09/17 07:02:37;;;;;;;22.00;14.60;;;14.80;99.90;;;;;;5041707;28;20034;-60
2021/09/17 07:05:03;;;;;;;23.27;14.55;;;14.80;99.90;;;;;;5052165;28;20017;-60
2021/09/17 07:07:29;;;;;;;22.38;13.55;;;14.80;99.90;;;;;;5053994;28;20066;-58
2021/09/17 07:09:54;;;;;;;24.10;13.73;;;14.90;99.90;;;;;;5053212;28;20024;-59
2021/09/17 07:12:20;;;;;;;25.58;14.45;;;15.00;99.90;;;;;;5054323;28;20032;-60
2021/09/17 07:14:46;;;;;;;24.83;14.65;;;15.00;99.90;;;;;;5052868;28;20033;-61
2021/09/17 07:17:11;;;;;;;22.63;13.65;;;15.20;99.90;;;;;;5047491;28;20033;-58
2021/09/17 07:19:37;;;;;;;19.73;12.93;;;15.20;99.90;;;;;;5053421;28;20037;-59
2021/09/17 07:22:05;;;;;;;16.77;11.68;;;15.30;99.90;;;;;;5053859;28;20383;-59
2021/09/17 07:24:31;;;;;;;21.55;12.85;;;15.30;99.90;;;;;;5053139;28;20615;-60
2021/09/17 07:26:57;;;;;;;19.25;11.38;;;15.30;99.90;;;;;;5054105;28;20359;-59
2021/09/17 07:29:23;;;;;;;21.13;11.90;;;15.40;99.90;;;;;;5044559;28;20045;-59
2021/09/17 07:31:49;;;;;;;21.15;11.82;;;15.50;99.90;;;;;;5047942;28;20075;-60
2021/09/17 07:34:15;;;;;;;20.23;11.43;;;15.50;99.90;;;;;;5049284;28;20040;-60
2021/09/17 07:36:40;;;;;;;16.83;10.07;;;15.60;99.90;;;;;;5053705;28;20029;-64
2021/09/17 07:39:06;;;;;;;16.60;9.45;;;15.60;99.90;;;;;;5052640;28;20059;-60
2021/09/17 07:41:32;;;;;;;14.90;7.85;;;15.70;99.90;;;;;;5047029;28;20055;-60
2021/09/17 07:43:57;;;;;;;15.15;7.88;;;15.60;99.90;;;;;;5045302;28;20029;-60
2021/09/17 07:46:23;;;;;;;12.18;7.63;;;15.60;99.90;;;;;;5053342;28;20035;-61
2021/09/17 07:48:49;;;;;;;12.32;8.18;;;15.60;99.90;;;;;;5052868;28;20068;-60
2021/09/17 07:51:14;;;;;;;10.13;6.63;;;15.70;99.90;;;;;;5053448;28;20102;-60
2021/09/17 07:53:40;;;;;;;11.65;7.10;;;15.70;99.90;;;;;;5052669;28;20100;-61
2021/09/17 07:56:06;;;;;;;14.73;7.80;;;15.80;99.90;;;;;;5051626;28;20056;-60
2021/09/17 07:58:31;;;;;;;18.90;8.50;;;15.80;99.90;;;;;;5039100;28;20494;-59
2021/09/17 08:00:57;;;;;;;18.63;8.75;;;16.00;99.90;;;;;;5041077;28;20033;-60
2021/09/17 08:03:28;;;;;;;13.73;7.15;;;16.20;99.90;;;;;;5032765;28;20376;-61
2021/09/17 08:05:55;;;;;;;15.25;7.35;;;16.30;99.90;;;;;;5044199;28;20104;-61
2021/09/17 08:08:21;;;;;;;19.70;8.15;;;16.50;99.90;;;;;;5052390;28;20040;-60
2021/09/17 08:10:46;;;;;;;15.05;7.40;;;16.40;99.90;;;;;;5052881;28;20503;-60
2021/09/17 08:13:12;;;;;;;18.15;7.47;;;16.50;99.90;;;;;;5038315;28;20115;-60
2021/09/17 08:15:38;;;;;;;10.88;6.82;;;16.50;99.90;;;;;;5052929;28;20056;-62
2021/09/17 08:18:04;;;;;;;16.48;7.00;;;16.50;99.90;;;;;;5052632;28;20036;-60
2021/09/17 08:20:29;;;;;;;17.23;7.28;;;16.50;99.90;;;;;;5052710;28;20467;-60
2021/09/17 08:22:55;;;;;;;12.55;7.03;;;16.50;99.90;;;;;;5052898;28;20471;-60
2021/09/17 08:25:21;;;;;;;14.43;8.13;;;16.50;99.90;;;;;;5051881;28;20021;-59
2021/09/17 08:27:47;;;;;;;12.75;7.10;;;16.60;99.90;;;;;;5053061;28;20029;-60
2021/09/17 08:30:12;;;;;;;14.10;7.82;;;16.60;99.90;;;;;;5051377;28;20056;-61
2021/09/17 08:32:39;;;;;;;13.23;7.60;;;16.60;99.90;;;;;;5052554;28;20462;-60
2021/09/17 08:35:14;;;;;;;12.23;6.95;;;16.70;99.90;;;;;;5051676;28;20029;-59
2021/09/17 08:37:40;;;;;;;14.35;7.75;;;16.80;99.90;;;;;;5052487;28;20029;-59
2021/09/17 08:40:06;;;;;;;16.85;8.23;;;16.90;99.90;;;;;;5051848;28;20035;-61
2021/09/17 08:42:33;;;;;;;14.77;7.93;;;17.00;99.90;;;;;;5052305;28;20033;-60
2021/09/17 08:44:58;;;;;;;17.20;7.97;;;17.00;99.90;;;;;;5051447;28;20037;-61
2021/09/17 08:47:25;;;;;;;13.93;7.22;;;17.10;99.90;;;;;;5052642;28;20178;-61
2021/09/17 08:49:51;;;;;;;12.63;6.90;;;17.00;99.90;;;;;;5051946;28;20063;-61
2021/09/17 08:52:17;;;;;;;16.60;7.90;;;17.10;99.90;;;;;;5052312;28;20045;-59
2021/09/17 08:54:42;;;;;;;14.50;7.88;;;17.20;99.90;;;;;;5051168;28;20078;-60
2021/09/17 08:57:09;;;;;;;21.10;8.77;;;17.40;99.90;;;;;;5052358;28;20410;-60
2021/09/17 08:59:35;;;;;;;11.95;6.15;;;17.70;99.90;;;;;;5050969;28;20037;-60
2021/09/17 09:02:28;;;;;;;13.43;7.53;;;18.00;99.90;;;;;;5052113;28;20478;-60
2021/09/17 09:05:05;;;;;;;10.75;5.80;;;18.10;99.90;;;;;;5051027;28;20044;-61
2021/09/17 09:07:38;;;;;;;12.85;5.53;;;18.30;99.90;;;;;;5051888;28;20029;-60
2021/09/17 09:10:10;;;;;;;15.18;5.68;;;18.60;99.90;;;;;;5051048;28;20375;-60
2021/09/17 09:12:48;;;;;;;12.68;5.40;;;18.90;99.90;;;;;;5045191;28;20075;-60
2021/09/17 09:15:15;;;;;;;17.17;5.10;;;19.30;99.90;;;;;;5050657;28;20064;-60
2021/09/17 09:17:42;;;;;;;7.60;4.18;;;19.60;99.90;;;;;;5051350;28;20024;-60
2021/09/17 09:20:19;;;;;;;11.07;4.22;;;19.60;99.90;;;;;;5050054;28;20043;-62
2021/09/17 09:23:08;;;;;;;12.85;4.03;;;19.80;99.90;;;;;;5051973;28;20529;-61
2021/09/17 09:25:35;;;;;;;10.48;3.80;;;19.80;99.90;;;;;;5051093;28;20041;-61
2021/09/17 09:28:17;;;;;;;9.18;3.72;;;19.90;99.90;;;;;;5040631;28;20029;-63
2021/09/17 09:30:44;;;;;;;12.48;4.82;;;20.00;99.90;;;;;;5044649;28;20077;-60
2021/09/17 09:33:39;;;;;;;9.65;4.00;;;20.10;99.90;;;;;;5043206;28;20036;-62
2021/09/17 09:36:07;;;;;;;13.50;4.88;;;20.20;99.90;;;;;;5052584;28;20049;-61
2021/09/17 09:38:46;;;;;;;9.38;3.53;;;19.90;99.90;;;;;;5049665;28;20391;-61
2021/09/17 09:41:20;;;;;;;10.07;3.88;;;19.80;99.90;;;;;;5051149;28;20374;-61
2021/09/17 09:43:58;;;;;;;9.43;3.63;;;19.40;99.90;;;;;;5051005;28;20025;-60
2021/09/17 09:46:30;;;;;;;10.38;3.58;;;19.20;99.90;;;;;;5050864;28;20029;-60
2021/09/17 09:49:09;;;;;;;9.38;4.00;;;19.00;99.90;;;;;;5050742;28;20033;-60
2021/09/17 09:52:00;;;;;;;10.60;3.83;;;18.90;99.90;;;;;;5045235;28;20104;-60
2021/09/17 09:54:30;;;;;;;8.77;3.72;;;18.90;99.90;;;;;;5055480;28;20124;-60
2021/09/17 09:56:57;;;;;;;7.85;3.30;;;18.80;99.90;;;;;;5051359;28;20037;-61
2021/09/17 09:59:28;;;;;;;9.77;3.28;;;18.90;99.90;;;;;;5050454;28;20029;-61
2021/09/17 10:01:55;;;;;;;9.52;3.25;;;18.90;99.90;;;;;;5050136;28;20387;-60
2021/09/17 10:04:25;;;;;;;13.25;3.70;;;18.80;99.90;;;;;;5049252;28;20040;-60
2021/09/17 10:07:04;;;;;;;6.05;2.50;;;19.10;99.90;;;;;;5050929;28;20033;-60
2021/09/17 10:09:31;;;;;;;9.13;2.42;;;19.30;99.90;;;;;;5050303;28;20391;-61
2021/09/17 10:12:00;;;;;;;10.80;2.72;;;19.50;99.90;;;;;;5050939;28;20060;-60
2021/09/17 10:14:27;;;;;;;8.80;2.70;;;19.90;99.90;;;;;;5050287;28;20561;-59
2021/09/17 10:16:54;;;;;;;7.00;2.80;;;20.00;99.90;;;;;;5050930;28;20040;-62
2021/09/17 10:19:21;;;;;;;8.05;2.55;;;20.10;99.90;;;;;;5050415;28;20452;-60
2021/09/17 10:21:51;;;;;;;9.15;2.60;;;20.20;99.90;;;;;;5050542;28;20033;-61
2021/09/17 10:24:25;;;;;;;7.38;2.60;;;20.40;99.90;;;;;;5050315;28;20083;-60
2021/09/17 10:26:57;;;;;;;12.45;3.42;;;20.60;99.90;;;;;;5050450;28;20033;-60
2021/09/17 10:29:33;;;;;;;8.93;3.50;;;20.70;99.90;;;;;;5050126;28;20053;-61
2021/09/17 10:32:00;;;;;;;8.15;3.50;;;20.60;99.90;;;;;;5054672;28;20476;-60
2021/09/17 10:34:44;;;;;;;7.72;3.28;;;20.50;99.90;;;;;;5054240;28;20029;-60
2021/09/17 10:37:10;;;;;;;6.57;2.90;;;20.30;99.90;;;;;;5054885;28;20756;-61
2021/09/17 10:39:38;;;;;;;8.27;3.45;;;20.30;99.90;;;;;;5054121;28;20059;-61
2021/09/17 10:42:16;;;;;;;9.90;3.55;;;20.20;99.90;;;;;;5054828;28;20028;-60
2021/09/17 10:45:00;;;;;;;14.07;3.53;;;20.10;99.90;;;;;;5054131;28;20075;-62
2021/09/17 10:47:44;;;;;;;10.68;3.38;;;20.10;99.90;;;;;;5055128;28;20060;-63
2021/09/17 10:50:14;;;;;;;6.88;2.80;;;20.20;99.90;;;;;;5053912;28;20033;-61
2021/09/17 10:52:42;;;;;;;6.32;2.42;;;20.20;99.90;;;;;;5052991;28;20415;-60
2021/09/17 10:55:09;;;;;;;11.85;3.30;;;20.40;99.90;;;;;;5053566;28;20468;-60
2021/09/17 10:58:12;;;;;;;6.15;1.98;;;20.50;99.90;;;;;;5054623;28;20058;-60
2021/09/17 11:01:02;;;;;;;7.40;2.00;;;20.60;99.90;;;;;;5053799;28;20356;-60
2021/09/17 11:03:44;;;;;;;4.22;1.92;;;20.70;99.90;;;;;;5054431;28;20059;-60
2021/09/17 11:08:46;;;;;;;8.25;2.05;;;20.80;99.90;;;;;;5028044;28;20127;-61
2021/09/17 11:11:24;;;;;;;4.70;1.90;;;20.90;99.90;;;;;;5053115;28;20102;-60
2021/09/17 11:13:52;;;;;;;8.27;2.20;;;20.90;99.90;;;;;;5054165;28;20044;-60
2021/09/17 11:16:19;;;;;;;6.03;1.83;;;20.80;99.90;;;;;;5053354;28;20121;-59
2021/09/17 11:19:06;;;;;;;4.07;1.80;;;20.90;99.90;;;;;;5049463;28;20036;-60
2021/09/17 11:21:40;;;;;;;8.30;4.53;;;21.00;99.90;;;;;;5046835;28;20479;-60
2021/09/17 11:24:22;;;;;;;6.57;1.80;;;21.00;99.90;;;;;;5054547;28;20029;-59
2021/09/17 11:26:50;;;;;;;6.28;1.98;;;21.00;99.90;;;;;;5052484;28;20108;-58
2021/09/17 11:29:18;;;;;;;7.10;2.28;;;20.80;99.90;;;;;;5041269;28;20497;-60
2021/09/17 11:31:45;;;;;;;12.88;2.45;;;20.70;99.90;;;;;;5053438;28;20037;-60
2021/09/17 11:34:13;;;;;;;7.88;2.10;;;20.90;99.90;;;;;;5051550;28;20056;-59
2021/09/17 11:36:51;;;;;;;4.93;1.98;;;21.10;99.90;;;;;;5056637;28;20032;-59
2021/09/17 11:39:22;;;;;;;4.32;1.80;;;21.20;99.90;;;;;;5053618;28;20033;-58
2021/09/17 11:41:49;;;;;;;5.82;1.80;;;21.20;99.90;;;;;;5052783;28;20025;-61
2021/09/17 11:44:43;;;;;;;7.32;1.92;;;21.30;99.90;;;;;;5053287;28;20403;-58
2021/09/17 11:47:12;;;;;;;5.85;2.20;;;21.30;99.90;;;;;;5053326;28;20036;-59
2021/09/17 11:49:43;;;;;;;4.10;1.60;;;21.30;99.90;;;;;;5052940;28;20048;-61
2021/09/17 11:52:11;;;;;;;5.10;1.90;;;21.30;99.90;;;;;;5053208;28;20114;-60
2021/09/17 11:54:37;;;;;;;6.40;1.70;;;21.40;99.90;;;;;;5052954;28;20041;-59
2021/09/17 11:57:08;;;;;;;4.78;1.70;;;21.50;99.90;;;;;;5053237;28;20029;-60
2021/09/17 11:59:41;;;;;;;6.00;1.80;;;21.50;99.90;;;;;;5052469;28;20568;-62
2021/09/17 12:02:24;;;;;;;4.28;1.90;;;21.60;99.90;;;;;;5053053;28;20496;-60
2021/09/17 12:05:01;;;;;;;5.10;2.00;;;21.60;99.90;;;;;;5038433;28;20621;-59
2021/09/17 12:07:29;;;;;;;4.65;1.70;;;21.60;99.90;;;;;;5052371;28;20033;-59
2021/09/17 12:09:55;;;;;;;5.47;1.50;;;21.70;99.90;;;;;;5052342;28;20490;-61
2021/09/17 12:12:33;;;;;;;6.15;1.83;;;21.80;99.90;;;;;;5052876;28;20395;-59
2021/09/17 12:14:59;;;;;;;3.65;1.48;;;21.90;99.90;;;;;;5051383;28;20048;-59
2021/09/17 12:17:25;;;;;;;5.35;1.63;;;22.00;99.90;;;;;;5052866;28;20025;-59
2021/09/17 12:19:59;;;;;;;9.77;3.30;;;22.10;99.90;;;;;;5052665;28;20342;-59
2021/09/17 12:22:32;;;;;;;3.08;1.60;;;22.30;99.90;;;;;;5027290;28;20020;-59
2021/09/17 12:25:16;;;;;;;5.05;1.88;;;22.30;99.90;;;;;;5052009;28;20370;-59
2021/09/17 12:27:48;;;;;;;8.48;2.22;;;22.10;99.90;;;;;;5052909;28;20037;-60
2021/09/17 12:30:16;;;;;;;7.72;2.33;;;22.10;99.90;;;;;;5051636;28;20048;-61
2021/09/17 12:32:43;;;;;;;5.35;2.00;;;22.20;99.90;;;;;;5052616;28;20372;-59
2021/09/17 12:35:16;;;;;;;7.82;2.08;;;22.30;99.90;;;;;;5052070;28;20092;-59
2021/09/17 12:37:54;;;;;;;7.50;2.70;;;22.30;99.90;;;;;;5052296;28;20067;-59
2021/09/17 12:40:22;;;;;;;6.65;2.35;;;22.60;99.90;;;;;;5052132;28;20036;-59